Time;durP1;ratioP1;P1;durP2;ratioP2;P2;SDS_P1;SDS_P2;PMS_P1;PMS_P2;Temp;Humidity;BMP_temperature;BMP_pressure;BME280_temperature;BME280_humidity;BME280_pressure;Samples;Min_cycle;Max_cycle;Signal;HPM_P1;HPM_P2
2022/03/19 00:00:31;;;;;;;22.67;8.50;;;;;;;4.83;75.43;103821.63;4962838;28;20054;-59
2022/03/19 00:02:58;;;;;;;17.17;8.63;;;;;;;4.78;76.47;103823.00;4962683;28;20054;-59
2022/03/19 00:05:24;;;;;;;17.17;7.55;;;;;;;4.73;75.86;103817.56;4962609;28;20058;-58
2022/03/19 00:07:51;;;;;;;20.35;8.68;;;;;;;4.68;75.79;103825.75;4962750;28;20394;-58
2022/03/19 00:10:22;;;;;;;16.65;8.73;;;;;;;4.64;75.73;103828.91;4962642;28;20062;-58
2022/03/19 00:12:49;;;;;;;19.13;8.52;;;;;;;4.59;75.99;103825.16;4962915;28;20062;-59
2022/03/19 00:15:17;;;;;;;19.52;9.55;;;;;;;4.52;76.54;103834.13;4962505;28;20053;-59
2022/03/19 00:17:43;;;;;;;20.92;9.73;;;;;;;4.49;76.29;103833.06;4963137;28;20113;-59
2022/03/19 00:20:11;;;;;;;24.45;10.13;;;;;;;4.44;76.25;103836.22;4962671;28;20385;-59
2022/03/19 00:22:38;;;;;;;16.75;8.93;;;;;;;4.40;76.07;103829.09;4963210;28;20140;-59
2022/03/19 00:25:05;;;;;;;27.65;10.73;;;;;;;4.37;76.36;103838.28;4961676;28;20523;-58
2022/03/19 00:27:33;;;;;;;18.35;8.13;;;;;;;4.33;76.25;103837.19;4962635;28;20055;-59
2022/03/19 00:29:59;;;;;;;22.67;11.15;;;;;;;4.30;76.33;103830.94;4961460;28;20746;-59
2022/03/19 00:32:26;;;;;;;22.65;10.52;;;;;;;4.28;76.78;103825.72;4964392;28;20543;-60
2022/03/19 00:34:52;;;;;;;30.27;14.10;;;;;;;4.27;77.11;103831.63;4963116;28;20069;-59
2022/03/19 00:37:19;;;;;;;24.35;11.20;;;;;;;4.27;77.00;103836.78;4963642;28;20054;-59
2022/03/19 00:39:45;;;;;;;23.15;9.73;;;;;;;4.28;77.61;103838.56;4963595;28;20059;-59
2022/03/19 00:42:11;;;;;;;23.77;10.68;;;;;;;4.29;78.03;103839.44;4962388;28;20474;-59
2022/03/19 00:44:39;;;;;;;21.33;9.98;;;;;;;4.30;77.82;103836.97;4963284;28;21661;-59
2022/03/19 00:47:06;;;;;;;21.83;9.52;;;;;;;4.33;77.83;103838.84;4962441;28;20054;-58
2022/03/19 00:49:32;;;;;;;20.33;9.27;;;;;;;4.36;77.56;103837.38;4963137;28;20043;-59
2022/03/19 00:51:59;;;;;;;21.48;9.65;;;;;;;4.39;78.54;103840.16;4962616;28;20062;-59
2022/03/19 00:54:25;;;;;;;24.35;10.63;;;;;;;4.40;78.15;103838.47;4962321;28;20059;-59
2022/03/19 00:56:51;;;;;;;20.95;9.90;;;;;;;4.40;78.11;103849.63;4962803;28;20054;-59
2022/03/19 00:59:18;;;;;;;21.08;9.52;;;;;;;4.41;77.93;103846.28;4961852;28;20058;-59
2022/03/19 01:01:46;;;;;;;25.10;11.43;;;;;;;4.42;78.25;103840.34;4962614;28;20042;-59
2022/03/19 01:04:12;;;;;;;22.08;10.95;;;;;;;4.40;78.07;103844.50;4962575;28;20086;-59
2022/03/19 01:06:39;;;;;;;22.55;10.20;;;;;;;4.41;78.21;103846.28;4961977;28;20062;-59
2022/03/19 01:09:05;;;;;;;24.05;9.95;;;;;;;4.42;78.32;103842.03;4962871;28;20542;-57
2022/03/19 01:11:32;;;;;;;31.90;12.43;;;;;;;4.40;79.01;103844.50;4962603;28;20396;-59
2022/03/19 01:13:58;;;;;;;35.67;12.45;;;;;;;4.37;79.42;103852.00;4962665;28;20054;-59
2022/03/19 01:16:26;;;;;;;27.17;12.48;;;;;;;4.36;79.43;103855.34;4965189;28;20051;-59
2022/03/19 01:18:54;;;;;;;26.75;11.05;;;;;;;4.38;79.06;103851.22;4967891;28;20057;-59
2022/03/19 01:21:20;;;;;;;26.95;11.73;;;;;;;4.38;79.22;103850.31;4967904;28;20058;-59
2022/03/19 01:23:47;;;;;;;23.75;10.32;;;;;;;4.37;78.92;103848.53;4965766;28;20051;-59
2022/03/19 01:26:13;;;;;;;23.40;11.18;;;;;;;4.35;78.88;103853.59;4967695;28;20055;-59
2022/03/19 01:28:40;;;;;;;28.50;10.98;;;;;;;4.34;79.31;103851.81;4967247;28;20059;-59
2022/03/19 01:31:06;;;;;;;25.10;12.23;;;;;;;4.33;79.17;103847.44;4966694;28;20841;-59
2022/03/19 01:33:33;;;;;;;25.90;11.73;;;;;;;4.31;79.62;103853.28;4967594;28;20447;-59
2022/03/19 01:36:01;;;;;;;23.85;11.00;;;;;;;4.33;79.86;103857.72;4967403;28;20510;-59
2022/03/19 01:38:27;;;;;;;24.17;10.65;;;;;;;4.33;79.89;103855.16;4967583;28;20069;-59
2022/03/19 01:40:54;;;;;;;25.42;11.73;;;;;;;4.34;79.98;103862.06;4967268;28;20066;-59
2022/03/19 01:43:20;;;;;;;28.20;12.30;;;;;;;4.35;79.88;103860.41;4968034;28;20670;-59
2022/03/19 01:45:48;;;;;;;30.40;12.13;;;;;;;4.32;79.71;103865.31;4966658;28;20054;-58
2022/03/19 01:48:14;;;;;;;29.38;12.85;;;;;;;4.34;80.23;103854.38;4967641;28;20191;-58
2022/03/19 01:50:41;;;;;;;29.35;11.63;;;;;;;4.34;80.21;103856.94;4967456;28;20055;-60
2022/03/19 01:53:08;;;;;;;31.05;11.10;;;;;;;4.37;80.13;103854.56;4967076;28;20050;-59
2022/03/19 01:55:35;;;;;;;27.58;11.60;;;;;;;4.39;80.00;103858.13;4967571;28;20472;-59
2022/03/19 01:58:02;;;;;;;25.55;11.70;;;;;;;4.41;80.05;103856.56;4967056;28;20050;-59
2022/03/19 02:00:29;;;;;;;32.42;14.18;;;;;;;4.46;80.33;103855.97;4966817;28;20081;-59
2022/03/19 02:02:56;;;;;;;34.25;13.57;;;;;;;4.49;80.56;103858.75;4966920;28;20507;-59
2022/03/19 02:05:23;;;;;;;30.33;13.85;;;;;;;4.53;80.12;103853.91;4966584;28;20050;-59
2022/03/19 02:07:51;;;;;;;26.83;13.20;;;;;;;4.57;80.62;103862.69;4966316;28;20051;-59
2022/03/19 02:10:23;;;;;;;32.40;14.43;;;;;;;4.58;80.16;103857.66;4966700;28;20069;-59
2022/03/19 02:12:50;;;;;;;27.33;13.18;;;;;;;4.62;80.13;103861.31;4965341;28;20142;-58
2022/03/19 02:15:17;;;;;;;28.00;14.15;;;;;;;4.63;80.43;103857.97;4966713;28;20721;-58
2022/03/19 02:17:44;;;;;;;36.45;16.05;;;;;;;4.66;79.76;103863.28;4966937;28;20503;-58
2022/03/19 02:20:12;;;;;;;29.90;15.05;;;;;;;4.68;79.75;103856.56;4963378;28;20066;-58
2022/03/19 02:22:39;;;;;;;32.00;15.63;;;;;;;4.69;80.15;103854.13;4964846;28;20062;-59
2022/03/19 02:28:04;;;;;;;37.75;17.52;;;;;;;4.72;80.29;103853.44;4905020;29;20196;-59
2022/03/19 02:30:31;;;;;;;37.08;17.15;;;;;;;4.73;79.89;103850.09;4951164;28;20054;-59
2022/03/19 02:33:00;;;;;;;38.72;16.52;;;;;;;4.74;80.36;103847.63;4965644;28;20503;-59
2022/03/19 02:35:27;;;;;;;37.65;18.02;;;;;;;4.78;79.94;103851.28;4966197;28;20058;-59
2022/03/19 02:37:53;;;;;;;45.22;20.63;;;;;;;4.76;79.83;103850.28;4964830;28;20047;-59
2022/03/19 02:40:22;;;;;;;48.22;19.33;;;;;;;4.75;80.54;103853.66;4966503;28;20054;-59
2022/03/19 02:42:50;;;;;;;34.05;17.33;;;;;;;4.73;80.27;103860.38;4964165;28;20058;-59
2022/03/19 02:45:17;;;;;;;36.13;16.58;;;;;;;4.72;80.41;103858.59;4964666;28;20062;-58
2022/03/19 02:47:57;;;;;;;50.97;17.92;;;;;;;4.71;80.94;103852.56;4965669;28;20841;-58
2022/03/19 02:50:27;;;;;;;38.15;15.85;;;;;;;4.72;80.04;103861.16;4963445;28;20198;-59
2022/03/19 02:52:54;;;;;;;34.38;16.38;;;;;;;4.72;80.39;103858.59;4966984;28;20059;-58
2022/03/19 02:55:22;;;;;;;27.38;13.18;;;;;;;4.72;80.54;103864.63;4965910;28;20051;-59
2022/03/19 02:57:48;;;;;;;30.45;13.98;;;;;;;4.71;80.41;103862.84;4965813;28;20772;-58
2022/03/19 03:00:15;;;;;;;27.85;13.80;;;;;;;4.71;80.61;103867.09;4965275;28;20416;-59
2022/03/19 03:02:42;;;;;;;27.23;12.90;;;;;;;4.69;80.13;103863.53;4965621;28;20057;-58
2022/03/19 03:05:11;;;;;;;42.05;15.93;;;;;;;4.65;80.54;103857.25;4965321;28;20051;-58
2022/03/19 03:07:38;;;;;;;32.95;14.25;;;;;;;4.63;80.76;103868.22;4965665;28;20051;-58
2022/03/19 03:10:05;;;;;;;35.08;16.83;;;;;;;4.61;80.75;103870.72;4965524;28;20058;-57
2022/03/19 03:12:33;;;;;;;39.70;16.58;;;;;;;4.60;80.83;103862.91;4964649;28;20064;-59
2022/03/19 03:14:59;;;;;;;37.78;16.92;;;;;;;4.60;80.74;103865.47;4964946;28;20047;-59
2022/03/19 03:17:26;;;;;;;32.10;15.32;;;;;;;4.58;80.91;103865.38;4964361;28;20542;-59
2022/03/19 03:19:53;;;;;;;30.98;14.75;;;;;;;4.59;81.07;103872.28;4964181;28;20051;-59
2022/03/19 03:22:19;;;;;;;33.85;13.93;;;;;;;4.58;80.49;103875.66;4965069;28;20137;-59
2022/03/19 03:24:46;;;;;;;37.15;15.77;;;;;;;4.57;80.46;103863.59;4965870;28;20535;-59
2022/03/19 03:27:12;;;;;;;38.90;17.27;;;;;;;4.58;81.08;103869.63;4965114;28;20538;-58
2022/03/19 03:29:41;;;;;;;35.20;15.05;;;;;;;4.57;80.57;103873.88;4965069;28;20070;-59
2022/03/19 03:32:09;;;;;;;35.72;15.00;;;;;;;4.55;80.43;103869.41;4963209;28;20058;-58
2022/03/19 03:34:36;;;;;;;39.42;15.68;;;;;;;4.52;81.07;103875.25;4964761;28;20078;-58
2022/03/19 03:37:02;;;;;;;34.60;14.70;;;;;;;4.48;81.04;103872.38;4965765;28;20062;-58
2022/03/19 03:39:29;;;;;;;36.85;15.00;;;;;;;4.47;80.64;103875.72;4964678;28;20047;-59
2022/03/19 03:41:56;;;;;;;34.67;15.65;;;;;;;4.41;81.12;103871.97;4965346;28;20054;-59
2022/03/19 03:44:22;;;;;;;41.25;16.83;;;;;;;4.40;80.91;103877.00;4964535;28;20053;-58
2022/03/19 03:46:50;;;;;;;33.45;15.07;;;;;;;4.38;81.12;103871.75;4964027;28;20054;-58
2022/03/19 03:49:17;;;;;;;31.77;12.85;;;;;;;4.38;81.95;103876.00;4965011;28;20050;-58
2022/03/19 03:51:44;;;;;;;26.98;11.55;;;;;;;4.34;81.41;103869.78;4965088;28;20051;-58
2022/03/19 03:54:11;;;;;;;20.73;11.23;;;;;;;4.32;82.13;103873.94;4965338;28;20061;-58
2022/03/19 03:56:37;;;;;;;23.42;11.63;;;;;;;4.33;82.20;103879.94;4964924;28;20155;-60
2022/03/19 03:59:04;;;;;;;26.88;11.02;;;;;;;4.32;81.38;103880.75;4964912;28;20444;-59
2022/03/19 04:01:31;;;;;;;22.85;10.07;;;;;;;4.31;82.20;103877.28;4964909;28;20053;-59
2022/03/19 04:03:59;;;;;;;23.63;10.45;;;;;;;4.32;82.17;103886.75;4964290;28;20057;-59
2022/03/19 04:06:25;;;;;;;26.33;11.05;;;;;;;4.32;81.39;103891.91;4964534;28;20055;-59
2022/03/19 04:08:51;;;;;;;23.92;9.93;;;;;;;4.34;81.10;103881.72;4965007;28;20046;-59
2022/03/19 04:11:18;;;;;;;28.20;10.85;;;;;;;4.32;81.18;103891.91;4965466;28;20058;-59
2022/03/19 04:13:44;;;;;;;22.15;11.15;;;;;;;4.31;81.54;103895.25;4963939;28;20061;-59
2022/03/19 04:16:11;;;;;;;27.55;11.15;;;;;;;4.29;81.97;103894.25;4964034;28;20073;-59
2022/03/19 04:18:37;;;;;;;32.97;12.68;;;;;;;4.29;81.18;103896.84;4964373;28;20051;-59
2022/03/19 04:21:05;;;;;;;26.92;12.07;;;;;;;4.28;81.41;103897.63;4964532;28;20062;-59
2022/03/19 04:23:31;;;;;;;25.08;12.40;;;;;;;4.30;81.85;103901.19;4964709;28;20050;-59
2022/03/19 04:25:58;;;;;;;20.30;9.43;;;;;;;4.31;81.65;103908.09;4963133;28;20051;-59
2022/03/19 04:28:24;;;;;;;28.75;12.60;;;;;;;4.32;81.59;103907.31;4963439;28;20065;-59
2022/03/19 04:30:51;;;;;;;27.98;11.82;;;;;;;4.29;81.14;103917.38;4963339;28;20062;-59
2022/03/19 04:33:20;;;;;;;29.23;12.48;;;;;;;4.27;81.76;103910.34;4965015;28;20059;-59
2022/03/19 04:38:32;;;;;;;26.17;12.18;;;;;;;4.21;81.66;103915.09;4964462;28;20058;-59
2022/03/19 04:41:00;;;;;;;23.38;12.15;;;;;;;4.19;81.55;103922.69;4964278;28;20424;-59
2022/03/19 04:43:26;;;;;;;26.98;11.00;;;;;;;4.18;81.56;103923.47;4964359;28;20162;-59
2022/03/19 04:45:53;;;;;;;24.50;11.20;;;;;;;4.13;82.10;103924.78;4964274;28;20051;-59
2022/03/19 04:48:19;;;;;;;25.20;11.70;;;;;;;4.07;81.60;103927.84;4963834;28;20063;-59
2022/03/19 04:50:48;;;;;;;30.30;13.77;;;;;;;3.98;81.80;103934.00;4965189;28;20054;-59
2022/03/19 04:53:14;;;;;;;24.73;12.00;;;;;;;3.95;82.17;103931.25;4967586;28;20428;-59
2022/03/19 04:55:43;;;;;;;36.78;15.60;;;;;;;3.85;82.19;103931.38;4967171;28;20061;-59
2022/03/19 04:58:10;;;;;;;35.30;14.07;;;;;;;3.77;82.45;103938.56;4967732;28;20046;-58
2022/03/19 05:00:37;;;;;;;37.13;14.98;;;;;;;3.70;83.24;103944.03;4967410;28;20058;-59
2022/03/19 05:03:04;;;;;;;29.83;14.13;;;;;;;3.68;82.75;103951.63;4967825;28;20151;-58
2022/03/19 05:05:30;;;;;;;33.15;15.32;;;;;;;3.66;83.42;103960.88;4967328;28;20046;-58
2022/03/19 05:07:57;;;;;;;37.88;15.38;;;;;;;3.64;83.11;103957.31;4967852;28;20047;-59
2022/03/19 05:13:10;;;;;;;31.65;15.48;;;;;;;3.59;83.41;103962.88;4967496;28;20089;-59
2022/03/19 05:15:38;;;;;;;35.60;14.70;;;;;;;3.61;83.84;103963.88;4967945;28;20109;-59
2022/03/19 05:18:04;;;;;;;31.70;14.73;;;;;;;3.60;83.35;103965.56;4967555;28;20051;-59
2022/03/19 05:20:31;;;;;;;28.55;13.00;;;;;;;3.62;83.65;103979.38;4967401;28;20548;-59
2022/03/19 05:22:58;;;;;;;28.15;12.50;;;;;;;3.62;83.63;103979.38;4967594;28;20808;-59
2022/03/19 05:25:24;;;;;;;24.63;11.68;;;;;;;3.59;83.64;103979.16;4967887;28;20070;-59
2022/03/19 05:27:51;;;;;;;25.38;12.18;;;;;;;3.58;83.53;103979.06;4966698;28;20054;-58
2022/03/19 05:30:19;;;;;;;27.70;12.02;;;;;;;3.60;83.88;103985.19;4967769;28;20465;-59
2022/03/19 05:32:46;;;;;;;24.75;12.68;;;;;;;3.60;84.13;103983.50;4966058;28;20143;-60
2022/03/19 05:35:12;;;;;;;24.80;10.93;;;;;;;3.62;84.27;103981.94;4965740;28;20050;-58
2022/03/19 05:37:40;;;;;;;29.63;12.10;;;;;;;3.65;84.38;103987.31;4967286;28;20047;-60
2022/03/19 05:40:07;;;;;;;28.60;11.43;;;;;;;3.67;84.32;103977.19;4966698;28;20063;-59
2022/03/19 05:42:34;;;;;;;23.98;10.32;;;;;;;3.69;84.20;103985.88;4967057;28;20078;-60
2022/03/19 05:45:00;;;;;;;25.60;10.52;;;;;;;3.71;84.96;103990.34;4966787;28;20039;-59
2022/03/19 05:47:28;;;;;;;26.95;10.82;;;;;;;3.74;85.02;103990.53;4966855;28;20051;-59
2022/03/19 05:49:54;;;;;;;24.33;9.88;;;;;;;3.76;84.44;103991.53;4967491;28;20760;-59
2022/03/19 05:52:21;;;;;;;24.77;9.07;;;;;;;3.78;84.77;103991.66;4966605;28;20058;-59
2022/03/19 05:54:48;;;;;;;23.58;10.48;;;;;;;3.80;85.09;103996.13;4966845;28;20055;-59
2022/03/19 05:57:14;;;;;;;26.63;10.63;;;;;;;3.82;85.15;103992.75;4965571;28;20050;-59
2022/03/19 05:59:40;;;;;;;22.52;9.85;;;;;;;3.85;84.85;103998.13;4966970;28;20419;-60
2022/03/19 06:02:07;;;;;;;23.48;8.35;;;;;;;3.88;84.43;104006.03;4965327;28;20479;-60
2022/03/19 06:04:35;;;;;;;21.52;9.60;;;;;;;3.91;84.52;104003.69;4966357;28;20047;-59
2022/03/19 06:07:02;;;;;;;30.30;11.27;;;;;;;3.92;84.88;104010.59;4966227;28;20051;-59
2022/03/19 06:09:29;;;;;;;27.38;10.48;;;;;;;3.94;84.79;104003.88;4966604;28;20058;-60
2022/03/19 06:11:55;;;;;;;23.27;10.32;;;;;;;3.96;85.42;104003.22;4966802;28;20059;-60
2022/03/19 06:14:22;;;;;;;26.58;10.57;;;;;;;4.00;85.16;104004.31;4966477;28;20051;-60
2022/03/19 06:16:50;;;;;;;27.20;11.32;;;;;;;4.00;84.53;103994.94;4966743;28;20058;-60
2022/03/19 06:19:16;;;;;;;29.80;11.48;;;;;;;4.00;84.62;104004.31;4965185;28;20074;-60
2022/03/19 06:21:45;;;;;;;25.67;11.07;;;;;;;4.03;85.21;104004.53;4966170;28;20078;-60
2022/03/19 06:24:11;;;;;;;23.80;10.60;;;;;;;4.06;84.87;104020.16;4966240;28;20055;-60
2022/03/19 06:26:38;;;;;;;25.35;10.15;;;;;;;4.08;85.39;104022.03;4966463;28;20061;-60
2022/03/19 06:29:05;;;;;;;29.30;10.98;;;;;;;4.09;84.91;104025.50;4966782;28;20054;-59
2022/03/19 06:31:32;;;;;;;23.88;9.73;;;;;;;4.06;84.74;104030.41;4966624;28;20062;-61
2022/03/19 06:33:58;;;;;;;22.27;9.82;;;;;;;4.03;84.86;104030.22;4963786;28;20065;-60
2022/03/19 06:39:11;;;;;;;26.92;10.68;;;;;;;4.02;85.42;104039.59;4964669;28;20065;-60
2022/03/19 06:41:37;;;;;;;31.52;11.10;;;;;;;4.01;84.71;104042.94;4965963;28;20448;-60
2022/03/19 06:44:04;;;;;;;26.27;10.82;;;;;;;3.99;84.68;104043.59;4966035;28;20062;-60
2022/03/19 06:46:31;;;;;;;23.70;9.38;;;;;;;4.00;85.01;104051.41;4965534;28;20059;-60
2022/03/19 06:48:57;;;;;;;21.30;9.90;;;;;;;4.02;85.31;104054.09;4965433;28;20053;-60
2022/03/19 06:51:24;;;;;;;25.23;10.40;;;;;;;4.04;85.29;104057.66;4966004;28;20538;-60
2022/03/19 06:53:50;;;;;;;36.22;11.02;;;;;;;3.99;85.58;104056.44;4965619;28;20480;-60
2022/03/19 06:56:19;;;;;;;30.50;10.98;;;;;;;3.95;85.28;104069.84;4965701;28;20054;-60
2022/03/19 06:58:46;;;;;;;23.92;10.05;;;;;;;3.95;85.65;104057.00;4965876;28;20141;-59
2022/03/19 07:01:15;;;;;;;22.38;10.00;;;;;;;3.97;85.57;104065.72;4965319;28;20063;-59
2022/03/19 07:03:43;;;;;;;25.42;10.35;;;;;;;3.97;86.18;104060.56;4964334;28;20078;-60
2022/03/19 07:06:09;;;;;;;24.65;10.48;;;;;;;3.98;85.38;104062.34;4965520;28;20086;-60
2022/03/19 07:08:36;;;;;;;54.35;11.63;;;;;;;3.95;85.87;104064.72;4964516;28;20135;-60
2022/03/19 07:11:02;;;;;;;25.52;9.88;;;;;;;3.91;85.78;104072.97;4963541;28;20063;-60
2022/03/19 07:13:31;;;;;;;35.95;12.43;;;;;;;3.91;86.04;104065.28;4963074;28;20135;-60
2022/03/19 07:15:58;;;;;;;26.10;10.13;;;;;;;3.90;86.33;104068.63;4964852;28;20102;-60
2022/03/19 07:18:24;;;;;;;25.77;9.43;;;;;;;3.88;85.93;104076.22;4963543;28;20680;-60
2022/03/19 07:20:51;;;;;;;16.20;7.40;;;;;;;3.83;85.98;104076.66;4963400;28;20066;-60
2022/03/19 07:23:18;;;;;;;15.23;7.30;;;;;;;3.80;85.69;104067.97;4965335;28;20054;-59
2022/03/19 07:25:44;;;;;;;14.07;6.80;;;;;;;3.76;85.68;104078.78;4964703;28;20046;-60
2022/03/19 07:28:13;;;;;;;20.77;8.23;;;;;;;3.74;86.17;104072.66;4964322;28;20070;-60
2022/03/19 07:30:41;;;;;;;21.88;8.13;;;;;;;3.77;86.61;104079.69;4963984;28;20051;-60
2022/03/19 07:33:08;;;;;;;22.05;9.02;;;;;;;3.83;86.68;104082.69;4964262;28;20492;-61
2022/03/19 07:35:35;;;;;;;18.45;7.90;;;;;;;3.88;87.03;104081.34;4964610;28;20122;-60
2022/03/19 07:38:02;;;;;;;16.20;7.63;;;;;;;3.91;86.97;104086.69;4964830;28;20043;-59
2022/03/19 07:43:14;;;;;;;13.55;6.10;;;;;;;3.90;86.47;104087.47;4964878;28;20174;-61
2022/03/19 07:45:42;;;;;;;13.00;5.22;;;;;;;3.92;86.01;104095.28;4964976;28;20432;-60
2022/03/19 07:48:10;;;;;;;12.05;5.30;;;;;;;3.94;85.58;104096.28;4963979;28;20393;-59
2022/03/19 07:50:38;;;;;;;13.60;7.00;;;;;;;3.97;85.97;104099.09;4964757;28;20053;-59
2022/03/19 07:53:06;;;;;;;12.50;6.13;;;;;;;3.99;85.89;104094.94;4965034;28;20215;-60
2022/03/19 07:55:33;;;;;;;11.02;5.90;;;;;;;3.96;85.79;104100.75;4962519;28;20061;-59
2022/03/19 07:57:59;;;;;;;11.27;5.43;;;;;;;3.96;84.92;104102.44;4963304;28;20468;-60
2022/03/19 08:00:26;;;;;;;12.65;5.93;;;;;;;3.97;84.83;104101.66;4962656;28;20058;-59
2022/03/19 08:02:54;;;;;;;11.70;5.80;;;;;;;3.97;85.50;104101.66;4962793;28;20284;-59
2022/03/19 08:05:21;;;;;;;13.38;6.25;;;;;;;3.97;85.03;104106.78;4963015;28;20069;-60
2022/03/19 08:07:47;;;;;;;14.50;5.63;;;;;;;4.00;85.60;104107.00;4962661;28;20051;-60
2022/03/19 08:10:15;;;;;;;9.45;5.22;;;;;;;4.02;84.81;104102.88;4962245;28;20054;-59
2022/03/19 08:12:43;;;;;;;10.30;5.45;;;;;;;4.04;85.03;104102.19;4962605;28;20049;-59
2022/03/19 08:15:11;;;;;;;9.65;5.20;;;;;;;4.10;85.31;104109.44;4962609;28;20050;-59
2022/03/19 08:17:42;;;;;;;11.05;5.10;;;;;;;4.16;84.79;104108.97;4962850;28;20042;-60
2022/03/19 08:20:11;;;;;;;10.85;4.55;;;;;;;4.18;84.22;104115.16;4963059;28;20055;-59
2022/03/19 08:22:38;;;;;;;15.32;5.38;;;;;;;4.20;84.50;104111.91;4961886;28;20066;-59
2022/03/19 08:25:06;;;;;;;12.18;4.47;;;;;;;4.20;83.86;104111.91;4957032;28;20074;-56
2022/03/19 08:27:32;;;;;;;11.38;4.10;;;;;;;4.18;83.55;104113.47;4956350;28;20055;-57
2022/03/19 08:29:59;;;;;;;9.18;4.78;;;;;;;4.18;83.41;104118.63;4965321;28;20077;-56
2022/03/19 08:32:26;;;;;;;10.07;3.85;;;;;;;4.20;83.19;104119.63;4965786;28;20054;-56
2022/03/19 08:34:52;;;;;;;8.05;3.50;;;;;;;4.25;82.79;104130.22;4968061;28;20057;-58
2022/03/19 08:37:20;;;;;;;7.32;4.53;;;;;;;4.27;83.20;104123.50;4968131;28;20057;-58
2022/03/19 08:42:33;;;;;;;14.25;4.18;;;;;;;4.33;82.33;104139.34;4964988;28;20464;-57
2022/03/19 08:44:59;;;;;;;9.68;4.00;;;;;;;4.38;83.02;104132.88;4967445;28;20501;-58
2022/03/19 08:47:26;;;;;;;9.10;4.30;;;;;;;4.45;82.18;104135.09;4967874;28;20059;-60
2022/03/19 08:49:52;;;;;;;7.35;3.75;;;;;;;4.52;81.72;104136.41;4962874;28;20050;-62
2022/03/19 08:52:20;;;;;;;7.57;3.88;;;;;;;4.50;81.48;104137.97;4965059;28;20431;-58
2022/03/19 08:54:46;;;;;;;10.30;4.95;;;;;;;4.54;81.28;104139.97;4964956;28;20054;-56
2022/03/19 08:57:14;;;;;;;10.27;4.60;;;;;;;4.51;80.83;104144.91;4966288;28;20046;-51
2022/03/19 08:59:40;;;;;;;7.43;4.25;;;;;;;4.50;81.62;104137.97;4965284;28;20058;-58
2022/03/19 09:02:07;;;;;;;10.45;4.65;;;;;;;4.51;81.41;104144.91;4965539;28;20053;-50
2022/03/19 09:04:33;;;;;;;11.45;5.20;;;;;;;4.54;81.27;104152.81;4965108;28;20055;-59
2022/03/19 09:07:00;;;;;;;9.80;5.03;;;;;;;4.43;81.43;104142.69;4965000;28;20054;-59
2022/03/19 09:09:28;;;;;;;10.60;5.53;;;;;;;4.37;81.46;104152.53;4965582;28;20054;-61
2022/03/19 09:11:54;;;;;;;9.77;5.00;;;;;;;4.36;81.55;104158.44;4965409;28;20550;-59
2022/03/19 09:14:24;;;;;;;10.65;5.05;;;;;;;4.32;81.35;104153.88;4965138;28;20047;-58
2022/03/19 09:16:50;;;;;;;7.75;3.97;;;;;;;4.32;82.01;104164.16;4965661;28;20182;-58
2022/03/19 09:19:17;;;;;;;8.73;4.38;;;;;;;4.34;81.67;104156.56;4965376;28;20401;-57
2022/03/19 09:21:43;;;;;;;9.13;4.20;;;;;;;4.36;82.05;104161.00;4964307;28;20507;-58
2022/03/19 09:24:10;;;;;;;6.15;3.42;;;;;;;4.36;82.18;104161.00;4965030;28;20058;-53
2022/03/19 09:26:38;;;;;;;6.55;3.60;;;;;;;4.39;81.40;104160.34;4964412;28;20504;-49
2022/03/19 09:29:04;;;;;;;7.07;4.07;;;;;;;4.38;81.25;104164.59;4964593;28;20053;-50
2022/03/19 09:31:31;;;;;;;9.63;4.70;;;;;;;4.38;81.95;104169.72;4964987;28;20050;-54
2022/03/19 09:33:57;;;;;;;7.45;3.25;;;;;;;4.39;82.15;104161.22;4964971;28;20149;-51
2022/03/19 09:36:24;;;;;;;7.50;4.15;;;;;;;4.42;82.14;104161.44;4964155;28;20055;-57
2022/03/19 09:38:51;;;;;;;6.70;3.67;;;;;;;4.44;82.50;104170.16;4965030;28;20051;-60
2022/03/19 09:41:17;;;;;;;7.35;3.72;;;;;;;4.50;82.32;104168.81;4964919;28;20062;-60
2022/03/19 09:43:45;;;;;;;10.43;4.60;;;;;;;4.57;81.79;104171.91;4963840;28;20065;-58
2022/03/19 09:46:11;;;;;;;9.10;4.63;;;;;;;4.59;81.81;104169.44;4964978;28;20051;-58
2022/03/19 09:48:38;;;;;;;8.60;3.50;;;;;;;4.60;81.27;104176.38;4965684;28;20863;-60
2022/03/19 09:51:09;;;;;;;6.05;3.67;;;;;;;4.61;81.67;104173.91;4965892;28;20073;-57
2022/03/19 09:53:36;;;;;;;9.02;4.10;;;;;;;4.63;81.50;104176.59;4960019;28;20142;-56
2022/03/19 09:56:03;;;;;;;7.00;3.05;;;;;;;4.63;81.72;104179.16;4964951;28;20054;-56
2022/03/19 09:58:30;;;;;;;6.65;3.20;;;;;;;4.61;81.40;104179.06;4963885;28;20062;-55
2022/03/19 10:01:04;;;;;;;8.15;3.97;;;;;;;4.63;81.17;104176.59;4965822;28;20050;-65
2022/03/19 10:03:33;;;;;;;7.15;3.78;;;;;;;4.65;81.00;104180.16;4964999;28;20062;-59
2022/03/19 10:08:55;;;;;;;6.63;3.85;;;;;;;4.69;81.41;104182.19;4964595;28;20053;-62
2022/03/19 10:11:21;;;;;;;5.82;3.83;;;;;;;4.72;81.38;104182.41;4963937;28;20042;-59
2022/03/19 10:13:50;;;;;;;10.02;3.80;;;;;;;4.76;81.26;104179.25;4964986;28;20057;-66
2022/03/19 10:16:22;;;;;;;7.88;3.70;;;;;;;4.82;81.65;104179.69;4965573;28;20062;-59
2022/03/19 10:18:55;;;;;;;8.00;3.85;;;;;;;4.81;80.61;104188.19;4963894;28;20494;-60
2022/03/19 10:21:22;;;;;;;7.55;4.00;;;;;;;4.82;80.65;104183.94;4962965;28;20065;-64
2022/03/19 10:23:48;;;;;;;7.68;4.28;;;;;;;4.80;81.26;104186.41;4964837;28;20050;-63
2022/03/19 10:26:26;;;;;;;8.57;4.55;;;;;;;4.77;80.65;104188.75;4964426;28;20050;-65
2022/03/19 10:29:00;;;;;;;7.05;3.90;;;;;;;4.71;80.98;104188.34;4963408;28;20047;-60
2022/03/19 10:31:33;;;;;;;9.25;4.05;;;;;;;4.68;81.10;104185.50;4963372;28;20453;-63
2022/03/19 10:34:00;;;;;;;6.05;3.90;;;;;;;4.64;80.70;104196.38;4964242;28;20070;-60
2022/03/19 10:36:32;;;;;;;9.55;4.85;;;;;;;4.60;80.82;104186.66;4964359;28;20455;-59
2022/03/19 10:39:00;;;;;;;7.90;4.60;;;;;;;4.56;81.68;104194.94;4964376;28;20121;-59
2022/03/19 10:41:27;;;;;;;6.97;4.20;;;;;;;4.52;81.65;104190.34;4964194;28;20086;-60
2022/03/19 10:43:54;;;;;;;7.18;4.82;;;;;;;4.53;82.03;104199.84;4961545;28;20528;-60
2022/03/19 10:46:20;;;;;;;8.18;4.60;;;;;;;4.55;82.16;104199.19;4962339;28;20421;-60
2022/03/19 10:48:54;;;;;;;7.85;4.20;;;;;;;4.60;82.50;104196.94;4962713;28;20495;-60
2022/03/19 10:51:21;;;;;;;8.25;4.75;;;;;;;4.65;81.90;104193.91;4962764;28;20109;-60
2022/03/19 10:53:49;;;;;;;8.23;4.88;;;;;;;4.65;82.02;104200.72;4962567;28;20116;-60
2022/03/19 10:56:16;;;;;;;8.95;4.80;;;;;;;4.68;82.11;104195.78;4962872;28;20419;-60
2022/03/19 10:58:43;;;;;;;10.00;4.68;;;;;;;4.75;81.76;104195.47;4962168;28;20054;-60
2022/03/19 11:01:13;;;;;;;16.00;5.05;;;;;;;4.82;82.07;104196.78;4962163;28;20062;-59
2022/03/19 11:03:42;;;;;;;10.25;5.30;;;;;;;4.88;81.86;104198.09;4961987;28;20046;-60
2022/03/19 11:06:11;;;;;;;7.45;4.97;;;;;;;4.93;81.66;104201.00;4959356;28;20137;-60
2022/03/19 11:08:39;;;;;;;9.52;4.82;;;;;;;4.96;81.33;104196.97;4961669;28;20047;-61
2022/03/19 11:11:10;;;;;;;11.68;4.97;;;;;;;5.01;81.41;104193.03;4963000;28;20399;-59
2022/03/19 11:13:41;;;;;;;10.02;6.00;;;;;;;5.01;80.70;104195.59;4963242;28;20419;-60
2022/03/19 11:16:10;;;;;;;10.52;5.80;;;;;;;5.06;81.17;104186.53;4963001;28;20057;-60
2022/03/19 11:18:38;;;;;;;12.57;6.10;;;;;;;5.10;80.84;104191.88;4962664;28;20266;-60
2022/03/19 11:21:05;;;;;;;10.55;5.80;;;;;;;5.17;80.66;104188.94;4962387;28;20058;-60
2022/03/19 11:23:39;;;;;;;10.45;6.50;;;;;;;5.22;80.54;104187.59;4962876;28;20707;-60
2022/03/19 11:26:08;;;;;;;11.18;6.50;;;;;;;5.29;80.35;104189.81;4955780;28;20058;-60
2022/03/19 11:28:35;;;;;;;10.60;6.78;;;;;;;5.35;80.63;104179.94;4951854;28;20629;-60
2022/03/19 11:31:07;;;;;;;11.38;5.90;;;;;;;5.37;80.08;104180.91;4957049;28;20051;-59
2022/03/19 11:33:36;;;;;;;10.48;6.47;;;;;;;5.39;79.38;104171.63;4960310;28;20065;-59
2022/03/19 11:36:09;;;;;;;14.77;7.72;;;;;;;5.44;79.62;104175.41;4957349;28;20051;-61
2022/03/19 11:38:42;;;;;;;15.43;7.55;;;;;;;5.49;79.75;104173.13;4960189;28;20050;-59
2022/03/19 11:41:24;;;;;;;12.55;7.20;;;;;;;5.55;79.31;104169.28;4958980;28;20055;-60